Time;durP1;ratioP1;P1;durP2;ratioP2;P2;SDS_P1;SDS_P2;PMS_P1;PMS_P2;Temp;Humidity;BMP_temperature;BMP_pressure;BME280_temperature;BME280_humidity;BME280_pressure;Samples;Min_cycle;Max_cycle;Signal;HPM_P1;HPM_P2
2022/07/06 00:00:58;;;;;;;;;;;;;;;28.85;41.38;100577.38;105181;1302;61284;-81
2022/07/06 00:03:23;;;;;;;;;;;;;;;28.85;41.32;100575.58;105239;1303;61230;-81
2022/07/06 00:05:49;;;;;;;;;;;;;;;28.85;41.22;100579.59;105262;1302;61730;-81
2022/07/06 00:08:15;;;;;;;;;;;;;;;28.85;41.47;100578.87;105228;1303;61508;-81
2022/07/06 00:10:40;;;;;;;;;;;;;;;28.85;41.31;100574.19;105227;1301;61285;-81
2022/07/06 00:13:06;;;;;;;;;;;;;;;28.84;41.37;100572.59;105231;1303;61226;-81
2022/07/06 00:15:32;;;;;;;;;;;;;;;28.84;41.26;100568.79;105213;1303;61292;-81
2022/07/06 00:17:58;;;;;;;;;;;;;;;28.84;41.46;100568.48;105145;1303;61416;-81
2022/07/06 00:20:23;;;;;;;;;;;;;;;28.84;41.20;100560.31;105210;1303;61305;-81
2022/07/06 00:22:49;;;;;;;;;;;;;;;28.84;41.35;100556.31;105049;1302;74980;-81
2022/07/06 00:25:14;;;;;;;;;;;;;;;28.83;41.19;100556.57;105212;1301;61355;-81
2022/07/06 00:27:40;;;;;;;;;;;;;;;28.83;41.25;100557.68;105196;1303;61276;-82
2022/07/06 00:30:06;;;;;;;;;;;;;;;28.83;41.15;100561.28;105166;1303;61445;-81
2022/07/06 00:32:31;;;;;;;;;;;;;;;28.83;41.24;100560.96;105175;1302;61177;-81
2022/07/06 00:34:57;;;;;;;;;;;;;;;28.83;41.25;100559.52;105212;1303;61330;-81
2022/07/06 00:37:22;;;;;;;;;;;;;;;28.83;41.23;100562.27;105090;1302;61121;-81
2022/07/06 00:39:48;;;;;;;;;;;;;;;28.83;41.35;100564.94;105274;1302;61281;-81
2022/07/06 00:42:13;;;;;;;;;;;;;;;28.83;41.21;100566.05;105144;1303;61403;-81
2022/07/06 00:44:38;;;;;;;;;;;;;;;28.82;41.44;100560.89;105248;1303;61290;-81
2022/07/06 00:47:05;;;;;;;;;;;;;;;28.82;41.50;100560.84;105124;1303;72758;-81
2022/07/06 00:52:15;;;;;;;;;;;;;;;28.82;41.49;100578.25;105223;1303;61274;-82
2022/07/06 00:54:42;;;;;;;;;;;;;;;28.82;41.66;100589.52;105118;1303;61323;-82
2022/07/06 00:57:07;;;;;;;;;;;;;;;28.82;41.38;100596.55;105100;1302;61147;-82
2022/07/06 00:59:33;;;;;;;;;;;;;;;28.81;41.47;100582.87;105136;1302;61261;-82
2022/07/06 01:01:58;;;;;;;;;;;;;;;28.81;41.56;100579.61;105075;1303;61281;-82
2022/07/06 01:04:25;;;;;;;;;;;;;;;28.82;41.41;100576.10;105235;1302;61250;-82
2022/07/06 01:06:51;;;;;;;;;;;;;;;28.81;41.47;100574.17;105104;1303;61355;-82
2022/07/06 01:09:16;;;;;;;;;;;;;;;28.81;41.49;100571.83;105184;1302;61259;-82
2022/07/06 01:11:42;;;;;;;;;;;;;;;28.81;41.53;100569.16;105220;1302;61440;-82
2022/07/06 01:14:07;;;;;;;;;;;;;;;28.81;41.52;100568.27;105211;1301;61291;-82
2022/07/06 01:16:32;;;;;;;;;;;;;;;28.81;41.61;100568.40;105109;1303;61351;-82
2022/07/06 01:18:58;;;;;;;;;;;;;;;28.81;41.67;100570.49;105078;1303;61284;-82
2022/07/06 01:21:23;;;;;;;;;;;;;;;28.81;41.58;100577.34;105283;1303;61280;-82
2022/07/06 01:23:49;;;;;;;;;;;;;;;28.80;41.50;100583.56;105139;1303;61255;-82
2022/07/06 01:26:19;;;;;;;;;;;;;;;28.80;41.59;100583.94;105215;1302;61264;-82
2022/07/06 01:28:45;;;;;;;;;;;;;;;28.80;41.71;100584.06;105370;1303;61121;-82
2022/07/06 01:31:21;;;;;;;;;;;;;;;28.80;41.66;100580.84;105429;1302;73665;-82
2022/07/06 01:33:46;;;;;;;;;;;;;;;28.80;41.75;100578.84;105375;1303;74772;-82
2022/07/06 01:36:12;;;;;;;;;;;;;;;28.81;41.85;100577.27;105387;1302;61259;-82
2022/07/06 01:38:47;;;;;;;;;;;;;;;28.82;41.84;100584.44;105426;1301;61303;-82
2022/07/06 01:41:13;;;;;;;;;;;;;;;28.82;41.78;100581.89;105338;1303;72744;-81
2022/07/06 01:43:38;;;;;;;;;;;;;;;28.83;41.70;100577.27;105228;1303;61280;-81
2022/07/06 01:46:05;;;;;;;;;;;;;;;28.83;41.67;100575.95;105117;1303;62069;-81
2022/07/06 01:48:30;;;;;;;;;;;;;;;28.83;41.76;100571.44;105084;1303;61390;-82
2022/07/06 01:50:55;;;;;;;;;;;;;;;28.83;41.67;100571.30;105245;1302;61271;-81
2022/07/06 01:53:21;;;;;;;;;;;;;;;28.84;41.81;100572.86;105188;1303;59313;-81
2022/07/06 01:55:46;;;;;;;;;;;;;;;28.83;41.65;100577.61;105154;1303;61269;-81
2022/07/06 01:58:12;;;;;;;;;;;;;;;28.82;41.79;100579.88;105260;1303;61270;-81
2022/07/06 02:00:37;;;;;;;;;;;;;;;28.82;41.78;100582.27;105252;1303;61355;-81
2022/07/06 02:03:03;;;;;;;;;;;;;;;28.81;41.70;100584.49;105257;1302;61453;-81
2022/07/06 02:05:28;;;;;;;;;;;;;;;28.81;41.70;100584.91;105209;1302;61230;-81
2022/07/06 02:07:54;;;;;;;;;;;;;;;28.81;41.79;100576.63;105248;1303;61272;-81
2022/07/06 02:10:19;;;;;;;;;;;;;;;28.80;41.81;100572.48;105204;1303;61268;-81
2022/07/06 02:12:45;;;;;;;;;;;;;;;28.80;41.98;100575.79;105266;1303;61278;-81
2022/07/06 02:15:10;;;;;;;;;;;;;;;28.80;41.84;100576.16;105211;1301;61375;-81
2022/07/06 02:17:36;;;;;;;;;;;;;;;28.80;41.90;100578.54;105194;1301;61284;-81
2022/07/06 02:20:01;;;;;;;;;;;;;;;28.79;41.78;100579.00;105148;1302;61288;-81
2022/07/06 02:22:26;;;;;;;;;;;;;;;28.79;41.86;100580.83;105235;1301;61261;-81
2022/07/06 02:24:52;;;;;;;;;;;;;;;28.79;41.81;100573.02;105256;1302;61304;-81
2022/07/06 02:27:18;;;;;;;;;;;;;;;28.79;41.72;100574.09;105099;1302;61259;-81
2022/07/06 02:29:43;;;;;;;;;;;;;;;28.78;41.89;100573.10;105253;1303;61249;-81
2022/07/06 02:32:09;;;;;;;;;;;;;;;28.77;41.82;100570.44;105123;1302;76796;-81
2022/07/06 02:34:34;;;;;;;;;;;;;;;28.78;41.96;100572.61;105120;1303;61415;-81
2022/07/06 02:37:00;;;;;;;;;;;;;;;28.78;41.97;100572.07;105210;1301;61345;-81
2022/07/06 02:39:25;;;;;;;;;;;;;;;28.77;41.94;100569.76;105153;1303;61220;-80
2022/07/06 02:41:51;;;;;;;;;;;;;;;28.76;42.04;100566.36;105276;1302;61275;-80
2022/07/06 02:44:17;;;;;;;;;;;;;;;28.77;41.84;100566.88;105186;1301;75475;-81
2022/07/06 02:46:42;;;;;;;;;;;;;;;28.77;42.03;100565.81;105209;1303;61295;-81
2022/07/06 02:49:08;;;;;;;;;;;;;;;28.76;41.91;100565.34;105166;1303;61291;-81
2022/07/06 02:51:33;;;;;;;;;;;;;;;28.76;42.06;100562.41;105181;1301;61281;-81
2022/07/06 02:53:59;;;;;;;;;;;;;;;28.76;42.05;100560.61;105296;1303;61348;-81
2022/07/06 02:56:24;;;;;;;;;;;;;;;28.76;42.03;100557.33;105202;1303;74663;-81
2022/07/06 02:58:50;;;;;;;;;;;;;;;28.76;42.11;100554.98;105273;1301;61277;-80
2022/07/06 03:01:15;;;;;;;;;;;;;;;28.76;42.31;100555.93;105121;1302;61390;-80
2022/07/06 03:03:41;;;;;;;;;;;;;;;28.76;42.06;100553.75;105219;1302;61266;-80
2022/07/06 03:06:06;;;;;;;;;;;;;;;28.76;42.12;100545.78;105167;1303;61284;-80
2022/07/06 03:08:31;;;;;;;;;;;;;;;28.76;42.11;100548.70;105207;1303;61946;-80
2022/07/06 03:10:58;;;;;;;;;;;;;;;28.76;42.16;100548.48;105171;1303;61252;-80
2022/07/06 03:13:23;;;;;;;;;;;;;;;28.76;42.19;100549.21;105244;1301;61180;-81
2022/07/06 03:15:48;;;;;;;;;;;;;;;28.76;42.23;100548.13;105233;1303;61252;-81
2022/07/06 03:18:14;;;;;;;;;;;;;;;28.75;42.04;100549.98;105228;1301;61365;-81
2022/07/06 03:20:39;;;;;;;;;;;;;;;28.76;42.39;100551.39;105170;1301;75859;-80
2022/07/06 03:23:05;;;;;;;;;;;;;;;28.76;42.15;100555.05;105224;1302;61253;-81
2022/07/06 03:25:32;;;;;;;;;;;;;;;28.76;42.11;100552.10;105233;1303;61284;-81
2022/07/06 03:27:57;;;;;;;;;;;;;;;28.77;42.16;100552.95;105179;1303;61141;-81
2022/07/06 03:30:23;;;;;;;;;;;;;;;28.76;42.00;100545.75;105136;1302;62289;-81
2022/07/06 03:32:49;;;;;;;;;;;;;;;28.76;42.29;100542.86;105023;1302;61286;-81
2022/07/06 03:35:14;;;;;;;;;;;;;;;28.76;42.43;100545.20;105191;1301;61284;-81
2022/07/06 03:37:40;;;;;;;;;;;;;;;28.76;42.22;100542.14;105274;1303;61259;-80
2022/07/06 03:40:05;;;;;;;;;;;;;;;28.76;42.26;100542.72;105221;1302;61254;-80
2022/07/06 03:42:31;;;;;;;;;;;;;;;28.75;42.08;100538.95;105168;1303;61299;-81
2022/07/06 03:44:57;;;;;;;;;;;;;;;28.75;42.33;100539.00;105115;1303;61265;-81
2022/07/06 03:47:23;;;;;;;;;;;;;;;28.74;42.32;100538.42;105251;1302;61240;-81
2022/07/06 03:49:48;;;;;;;;;;;;;;;28.73;42.09;100542.46;105281;1301;61276;-81
2022/07/06 03:52:14;;;;;;;;;;;;;;;28.72;42.21;100540.01;105268;1303;72692;-80
2022/07/06 03:54:39;;;;;;;;;;;;;;;28.72;42.12;100538.61;105193;1303;61380;-81
2022/07/06 03:57:05;;;;;;;;;;;;;;;28.71;42.35;100536.17;105168;1303;61433;-81
2022/07/06 03:59:30;;;;;;;;;;;;;;;28.70;42.19;100534.80;105269;1302;61258;-81
2022/07/06 04:01:55;;;;;;;;;;;;;;;28.69;42.14;100530.77;105280;1301;61261;-81
2022/07/06 04:04:22;;;;;;;;;;;;;;;28.68;42.09;100533.92;105145;1302;73711;-82
2022/07/06 04:06:47;;;;;;;;;;;;;;;28.67;42.07;100538.94;105138;1303;61397;-80
2022/07/06 04:09:13;;;;;;;;;;;;;;;28.66;42.20;100534.71;105226;1303;61396;-81
2022/07/06 04:11:39;;;;;;;;;;;;;;;28.65;42.05;100529.91;105160;1303;61974;-81
2022/07/06 04:14:04;;;;;;;;;;;;;;;28.65;41.89;100528.89;105210;1302;61370;-81
2022/07/06 04:16:30;;;;;;;;;;;;;;;28.65;41.89;100524.75;105176;1302;61295;-81
2022/07/06 04:18:55;;;;;;;;;;;;;;;28.64;41.73;100528.42;105225;1302;61249;-81
2022/07/06 04:21:21;;;;;;;;;;;;;;;28.64;41.73;100523.73;105130;1303;61270;-82
2022/07/06 04:23:47;;;;;;;;;;;;;;;28.64;41.98;100524.08;105119;1303;61407;-81
2022/07/06 04:26:13;;;;;;;;;;;;;;;28.64;41.63;100528.45;105125;1303;62257;-81
2022/07/06 04:28:38;;;;;;;;;;;;;;;28.63;41.54;100534.99;105121;1303;61288;-81
2022/07/06 04:31:04;;;;;;;;;;;;;;;28.62;41.46;100541.27;105283;1301;61294;-83
2022/07/06 04:33:29;;;;;;;;;;;;;;;28.61;41.27;100541.02;105249;1302;61255;-83
2022/07/06 04:35:55;;;;;;;;;;;;;;;28.61;41.18;100543.55;105176;1302;61263;-83
2022/07/06 04:38:20;;;;;;;;;;;;;;;28.62;41.27;100549.83;105277;1302;61368;-83
2022/07/06 04:40:46;;;;;;;;;;;;;;;28.62;41.26;100554.73;105170;1303;61357;-83
2022/07/06 04:43:12;;;;;;;;;;;;;;;28.62;41.13;100548.00;105193;1301;61425;-81
2022/07/06 04:45:37;;;;;;;;;;;;;;;28.63;40.94;100548.46;105212;1303;61249;-81
2022/07/06 04:48:03;;;;;;;;;;;;;;;28.62;41.13;100551.46;105272;1301;61239;-81
2022/07/06 04:50:28;;;;;;;;;;;;;;;28.62;40.82;100560.33;105287;1303;61380;-81
2022/07/06 04:52:53;;;;;;;;;;;;;;;28.62;40.86;100558.82;105170;1302;61272;-81
2022/07/06 04:55:19;;;;;;;;;;;;;;;28.62;41.06;100547.41;105176;1302;61830;-81
2022/07/06 04:57:44;;;;;;;;;;;;;;;28.62;40.86;100553.43;105219;1303;61229;-81
2022/07/06 05:00:10;;;;;;;;;;;;;;;28.62;40.89;100563.02;105137;1303;61265;-81
2022/07/06 05:02:36;;;;;;;;;;;;;;;28.63;40.75;100559.87;105118;1302;61264;-81
2022/07/06 05:05:02;;;;;;;;;;;;;;;28.62;40.69;100546.33;105152;1302;61256;-81
2022/07/06 05:07:29;;;;;;;;;;;;;;;28.63;40.51;100556.08;105131;1303;61380;-81
2022/07/06 05:09:54;;;;;;;;;;;;;;;28.63;40.55;100557.84;105218;1301;61271;-81
2022/07/06 05:12:20;;;;;;;;;;;;;;;28.64;40.23;100556.86;105255;1302;61253;-81
2022/07/06 05:14:45;;;;;;;;;;;;;;;28.65;40.33;100550.47;105248;1301;73849;-81
2022/07/06 05:17:10;;;;;;;;;;;;;;;28.65;40.50;100553.47;105250;1302;60086;-81
2022/07/06 05:19:36;;;;;;;;;;;;;;;28.65;40.55;100557.06;105159;1303;61236;-81
2022/07/06 05:22:01;;;;;;;;;;;;;;;28.66;40.49;100555.38;105112;1303;61288;-81
2022/07/06 05:24:27;;;;;;;;;;;;;;;28.67;40.20;100551.33;105215;1302;61297;-81
2022/07/06 05:26:52;;;;;;;;;;;;;;;28.66;40.18;100552.65;105057;1303;61283;-81
2022/07/06 05:29:18;;;;;;;;;;;;;;;28.66;40.34;100556.13;105144;1300;61394;-81
2022/07/06 05:31:43;;;;;;;;;;;;;;;28.67;40.37;100556.73;104988;1303;61274;-81
2022/07/06 05:34:09;;;;;;;;;;;;;;;28.68;40.46;100554.11;104909;1302;61966;-81
2022/07/06 05:36:34;;;;;;;;;;;;;;;28.68;39.93;100553.52;105005;1303;61265;-81
2022/07/06 05:38:59;;;;;;;;;;;;;;;28.68;40.29;100554.77;104948;1302;61384;-81
2022/07/06 05:41:25;;;;;;;;;;;;;;;28.69;40.06;100555.78;105100;1302;61323;-82
2022/07/06 05:43:50;;;;;;;;;;;;;;;28.70;40.25;100556.27;104886;1303;61473;-82
2022/07/06 05:46:16;;;;;;;;;;;;;;;28.70;39.95;100556.20;104827;1302;61467;-82
2022/07/06 05:51:25;;;;;;;;;;;;;;;28.72;39.91;100556.91;104964;1302;72846;-81
2022/07/06 05:53:51;;;;;;;;;;;;;;;28.72;40.01;100559.19;105116;1302;62115;-81
2022/07/06 05:56:16;;;;;;;;;;;;;;;28.73;40.00;100559.53;104768;1303;61285;-81
2022/07/06 05:58:42;;;;;;;;;;;;;;;28.72;39.89;100558.58;104909;1303;61467;-81
2022/07/06 06:01:08;;;;;;;;;;;;;;;28.72;39.67;100564.89;104830;1303;61294;-82
2022/07/06 06:03:34;;;;;;;;;;;;;;;28.72;39.56;100565.60;105073;1302;72864;-81
2022/07/06 06:05:59;;;;;;;;;;;;;;;28.72;39.79;100564.69;105106;1302;61242;-81
2022/07/06 06:08:25;;;;;;;;;;;;;;;28.72;39.70;100565.16;105119;1303;61355;-81
2022/07/06 06:10:51;;;;;;;;;;;;;;;28.73;39.68;100567.98;105025;1302;61299;-81
2022/07/06 06:13:16;;;;;;;;;;;;;;;28.75;39.74;100572.34;105020;1303;61266;-81
2022/07/06 06:15:41;;;;;;;;;;;;;;;28.75;39.84;100571.92;104927;1303;71699;-81
2022/07/06 06:18:07;;;;;;;;;;;;;;;28.76;39.65;100568.70;105209;1303;61355;-81
2022/07/06 06:20:32;;;;;;;;;;;;;;;28.77;39.80;100568.48;105051;1302;59875;-81
2022/07/06 06:22:58;;;;;;;;;;;;;;;28.77;39.60;100565.44;105105;1302;61351;-81
2022/07/06 06:25:31;;;;;;;;;;;;;;;28.78;39.32;100571.33;104909;1303;61708;-82
2022/07/06 06:27:56;;;;;;;;;;;;;;;28.79;39.72;100569.91;104701;1302;522633;-81
2022/07/06 06:30:22;;;;;;;;;;;;;;;28.78;39.74;100566.43;105134;1302;61359;-81
2022/07/06 06:32:48;;;;;;;;;;;;;;;28.76;39.49;100568.42;104905;1303;61310;-81
2022/07/06 06:35:13;;;;;;;;;;;;;;;28.75;39.51;100563.37;104851;1301;61247;-82
2022/07/06 06:37:39;;;;;;;;;;;;;;;28.75;39.56;100564.02;104759;1302;59413;-82
2022/07/06 06:40:04;;;;;;;;;;;;;;;28.73;39.68;100562.02;105028;1303;74619;-81
2022/07/06 06:42:31;;;;;;;;;;;;;;;28.73;39.80;100558.08;105035;1302;61279;-81
2022/07/06 06:44:56;;;;;;;;;;;;;;;28.74;39.58;100559.71;105079;1302;62484;-81
2022/07/06 06:47:21;;;;;;;;;;;;;;;28.76;39.69;100556.23;104949;1303;61310;-81
2022/07/06 06:49:47;;;;;;;;;;;;;;;28.77;39.76;100554.38;105099;1303;61300;-82
2022/07/06 06:52:13;;;;;;;;;;;;;;;28.79;39.72;100555.46;104967;1302;61246;-82
2022/07/06 06:54:38;;;;;;;;;;;;;;;28.79;39.77;100556.70;105010;1300;61175;-81
2022/07/06 06:57:04;;;;;;;;;;;;;;;28.80;39.73;100554.22;104962;1302;61377;-81
2022/07/06 06:59:29;;;;;;;;;;;;;;;28.81;39.71;100552.14;105045;1303;61285;-81
2022/07/06 07:01:55;;;;;;;;;;;;;;;28.81;39.68;100555.78;104956;1302;61400;-82
2022/07/06 07:04:20;;;;;;;;;;;;;;;28.82;39.57;100557.81;105100;1302;61225;-82
2022/07/06 07:06:45;;;;;;;;;;;;;;;28.81;39.56;100550.48;105052;1301;61247;-81
2022/07/06 07:09:11;;;;;;;;;;;;;;;28.81;39.52;100550.30;105149;1300;62001;-81
2022/07/06 07:11:36;;;;;;;;;;;;;;;28.79;39.35;100548.89;104848;1303;61326;-81
2022/07/06 07:14:02;;;;;;;;;;;;;;;28.79;39.40;100549.98;104900;1302;61291;-82
2022/07/06 07:16:28;;;;;;;;;;;;;;;28.80;39.42;100549.73;105682;1301;61253;-82
2022/07/06 07:18:54;;;;;;;;;;;;;;;28.81;39.42;100550.08;105013;1302;61292;-82
2022/07/06 07:21:20;;;;;;;;;;;;;;;28.83;39.59;100549.15;104899;1302;61339;-82
2022/07/06 07:23:45;;;;;;;;;;;;;;;28.83;39.41;100552.95;104858;1302;61236;-82
2022/07/06 07:26:11;;;;;;;;;;;;;;;28.85;39.37;100555.14;105016;1302;61253;-81
2022/07/06 07:28:36;;;;;;;;;;;;;;;28.86;39.52;100554.26;104926;1302;62205;-82
2022/07/06 07:31:02;;;;;;;;;;;;;;;28.87;39.43;100556.71;105146;1303;61308;-81
2022/07/06 07:33:27;;;;;;;;;;;;;;;28.88;39.59;100560.23;105031;1303;61419;-82
2022/07/06 07:35:52;;;;;;;;;;;;;;;28.88;39.50;100558.44;104671;1302;61406;-82
2022/07/06 07:38:18;;;;;;;;;;;;;;;28.89;39.47;100558.00;105005;1303;61271;-82
2022/07/06 07:40:43;;;;;;;;;;;;;;;28.87;39.48;100556.67;105028;1302;61990;-82
2022/07/06 07:43:09;;;;;;;;;;;;;;;28.87;39.36;100553.24;104984;1303;61272;-82
2022/07/06 07:45:34;;;;;;;;;;;;;;;28.88;39.38;100554.46;105047;1302;61373;-82
2022/07/06 07:48:00;;;;;;;;;;;;;;;28.89;39.19;100558.33;105019;1301;59983;-82
2022/07/06 07:50:26;;;;;;;;;;;;;;;28.90;39.16;100559.70;104966;1303;61243;-81
2022/07/06 07:52:52;;;;;;;;;;;;;;;28.91;39.21;100558.27;105141;1301;61339;-82
2022/07/06 07:55:18;;;;;;;;;;;;;;;28.91;39.35;100553.96;105014;1302;61294;-82
2022/07/06 07:57:43;;;;;;;;;;;;;;;28.91;39.16;100556.81;105135;1303;61128;-82
2022/07/06 08:00:09;;;;;;;;;;;;;;;28.92;39.20;100554.73;105122;1302;73877;-82
2022/07/06 08:02:34;;;;;;;;;;;;;;;28.93;39.33;100546.63;104799;1303;61263;-82
2022/07/06 08:05:00;;;;;;;;;;;;;;;28.94;39.08;100551.83;104964;1302;61357;-82
2022/07/06 08:07:25;;;;;;;;;;;;;;;28.95;39.22;100549.00;105059;1303;61278;-83
2022/07/06 08:09:50;;;;;;;;;;;;;;;28.96;39.04;100550.33;105183;1302;61272;-82
2022/07/06 08:12:16;;;;;;;;;;;;;;;28.97;39.26;100543.30;105032;1303;71951;-81
2022/07/06 08:14:42;;;;;;;;;;;;;;;28.98;39.05;100543.58;104989;1302;61240;-81
2022/07/06 08:17:08;;;;;;;;;;;;;;;28.99;38.86;100541.99;104955;1302;61682;-81
2022/07/06 08:19:33;;;;;;;;;;;;;;;29.01;38.97;100537.84;104771;1303;61269;-81
2022/07/06 08:21:58;;;;;;;;;;;;;;;29.02;39.10;100540.25;104949;1302;61326;-81
2022/07/06 08:24:24;;;;;;;;;;;;;;;29.03;39.08;100539.95;104955;1302;61275;-81
2022/07/06 08:26:49;;;;;;;;;;;;;;;29.04;39.05;100541.89;104807;1303;59481;-81
2022/07/06 08:29:15;;;;;;;;;;;;;;;29.05;38.93;100548.06;104984;1302;61266;-82
2022/07/06 08:31:40;;;;;;;;;;;;;;;29.05;38.98;100546.02;104845;1303;60033;-82
2022/07/06 08:34:06;;;;;;;;;;;;;;;29.06;38.94;100538.69;104785;1303;61299;-83
2022/07/06 08:36:31;;;;;;;;;;;;;;;29.07;38.78;100545.99;104902;1302;73941;-83
2022/07/06 08:38:57;;;;;;;;;;;;;;;29.08;38.75;100540.28;104893;1302;61307;-82
2022/07/06 08:41:23;;;;;;;;;;;;;;;29.09;38.56;100542.40;104944;1302;61266;-82
2022/07/06 08:43:49;;;;;;;;;;;;;;;29.10;38.70;100539.17;105030;1303;61272;-82
2022/07/06 08:46:14;;;;;;;;;;;;;;;29.12;38.58;100542.13;104960;1301;61268;-82
2022/07/06 08:48:40;;;;;;;;;;;;;;;29.11;38.53;100541.78;104996;1302;61268;-82
2022/07/06 08:51:05;;;;;;;;;;;;;;;29.11;38.76;100539.58;104908;1303;75736;-83
2022/07/06 08:53:32;;;;;;;;;;;;;;;29.12;38.46;100537.88;104976;1302;61252;-82
2022/07/06 08:55:57;;;;;;;;;;;;;;;29.14;38.74;100540.09;104870;1302;61321;-82
2022/07/06 08:58:27;;;;;;;;;;;;;;;29.14;38.67;100540.59;104975;1302;61166;-83
2022/07/06 09:00:54;;;;;;;;;;;;;;;29.13;38.62;100535.40;104843;1302;74665;-79
2022/07/06 09:03:19;;;;;;;;;;;;;;;29.14;38.78;100537.27;104886;1302;61298;-81
2022/07/06 09:05:45;;;;;;;;;;;;;;;29.16;38.63;100536.94;104906;1302;61381;-81
2022/07/06 09:08:11;;;;;;;;;;;;;;;29.16;38.46;100536.50;105063;1302;61262;-81
2022/07/06 09:10:37;;;;;;;;;;;;;;;29.17;38.41;100534.40;104894;1302;61374;-81
2022/07/06 09:13:04;;;;;;;;;;;;;;;29.17;38.59;100538.23;104926;1302;61256;-81
2022/07/06 09:15:30;;;;;;;;;;;;;;;29.19;38.43;100532.40;104949;1303;61179;-81
2022/07/06 09:17:55;;;;;;;;;;;;;;;29.19;38.42;100525.02;104898;1302;61304;-81
2022/07/06 09:20:21;;;;;;;;;;;;;;;29.20;38.34;100529.59;104908;1303;61284;-81
2022/07/06 09:22:46;;;;;;;;;;;;;;;29.22;38.38;100528.30;104866;1302;61353;-81
2022/07/06 09:25:12;;;;;;;;;;;;;;;29.21;38.60;100528.02;105036;1301;61284;-82
2022/07/06 09:27:39;;;;;;;;;;;;;;;29.21;38.28;100529.24;104913;1301;61358;-82
2022/07/06 09:30:06;;;;;;;;;;;;;;;29.20;38.24;100529.52;105162;1302;61143;-81
2022/07/06 09:32:31;;;;;;;;;;;;;;;29.19;38.33;100529.83;105203;1303;59968;-81
2022/07/06 09:34:57;;;;;;;;;;;;;;;29.17;38.09;100529.48;104974;1302;61298;-81
2022/07/06 09:37:23;;;;;;;;;;;;;;;29.17;38.07;100528.46;104982;1301;61380;-81
2022/07/06 09:39:49;;;;;;;;;;;;;;;29.17;38.34;100528.47;105108;1302;61297;-82
2022/07/06 09:42:15;;;;;;;;;;;;;;;29.17;38.48;100521.36;105111;1303;61220;-82
2022/07/06 09:44:41;;;;;;;;;;;;;;;29.18;38.13;100522.68;105150;1301;61401;-82
2022/07/06 09:47:07;;;;;;;;;;;;;;;29.18;38.13;100529.55;105089;1303;61366;-81
2022/07/06 09:49:33;;;;;;;;;;;;;;;29.17;38.42;100524.66;104907;1303;61432;-81
2022/07/06 09:51:59;;;;;;;;;;;;;;;29.16;38.25;100525.68;104970;1303;61324;-81
2022/07/06 09:54:25;;;;;;;;;;;;;;;29.15;38.38;100520.72;105077;1302;61297;-81
2022/07/06 09:56:51;;;;;;;;;;;;;;;29.14;38.49;100523.13;104988;1302;61422;-83
2022/07/06 09:59:18;;;;;;;;;;;;;;;29.13;38.67;100520.35;104996;1303;61295;-84
2022/07/06 10:01:43;;;;;;;;;;;;;;;29.13;38.71;100518.42;105118;1301;61391;-83
2022/07/06 10:04:10;;;;;;;;;;;;;;;29.12;38.71;100519.19;105089;1303;61180;-84
2022/07/06 10:06:36;;;;;;;;;;;;;;;29.12;38.76;100519.27;105100;1301;61412;-84
2022/07/06 10:09:02;;;;;;;;;;;;;;;29.11;38.72;100513.15;105005;1302;61425;-84
2022/07/06 10:11:28;;;;;;;;;;;;;;;29.11;38.77;100510.43;104958;1302;61402;-84
2022/07/06 10:13:54;;;;;;;;;;;;;;;29.11;39.16;100514.23;104875;1302;72701;-82
2022/07/06 10:16:20;;;;;;;;;;;;;;;29.10;39.21;100510.16;105089;1302;74554;-81
2022/07/06 10:18:45;;;;;;;;;;;;;;;29.11;39.17;100505.74;105096;1303;61256;-82
2022/07/06 10:21:11;;;;;;;;;;;;;;;29.11;39.33;100503.58;104893;1302;59794;-83
2022/07/06 10:23:36;;;;;;;;;;;;;;;29.12;39.38;100510.73;104957;1302;61429;-84
2022/07/06 10:26:02;;;;;;;;;;;;;;;29.12;39.81;100513.08;105139;1302;61275;-84
2022/07/06 10:28:27;;;;;;;;;;;;;;;29.13;39.78;100511.69;104899;1302;74555;-84
2022/07/06 10:30:53;;;;;;;;;;;;;;;29.14;40.06;100509.08;104911;1302;61300;-83
2022/07/06 10:33:18;;;;;;;;;;;;;;;29.14;40.08;100505.44;105098;1302;61317;-82
2022/07/06 10:35:43;;;;;;;;;;;;;;;29.14;39.91;100502.17;105097;1302;61307;-81
2022/07/06 10:38:09;;;;;;;;;;;;;;;29.14;40.13;100504.02;105069;1302;62078;-81
2022/07/06 10:43:23;;;;;;;;;;;;;;;29.13;40.45;100510.13;105176;1302;61122;-81
2022/07/06 10:45:48;;;;;;;;;;;;;;;29.13;40.15;100506.86;104884;1302;61409;-81
2022/07/06 10:48:17;;;;;;;;;;;;;;;29.12;40.29;100502.20;105109;1301;62413;-81
2022/07/06 10:50:53;;;;;;;;;;;;;;;29.12;40.56;100501.83;105066;1301;75871;-83
2022/07/06 10:53:22;;;;;;;;;;;;;;;29.12;40.69;100503.25;105113;1302;61252;-83
2022/07/06 10:55:50;;;;;;;;;;;;;;;29.12;40.78;100498.70;105101;1302;61270;-84
2022/07/06 10:58:16;;;;;;;;;;;;;;;29.13;40.74;100498.10;105107;1301;73552;-84
2022/07/06 11:00:51;;;;;;;;;;;;;;;29.14;40.83;100503.27;105058;1302;61396;-84
2022/07/06 11:03:33;;;;;;;;;;;;;;;29.14;40.74;100502.14;104982;1300;61477;-84
2022/07/06 11:05:59;;;;;;;;;;;;;;;29.15;40.81;100502.62;105065;1303;61239;-84
2022/07/06 11:08:43;;;;;;;;;;;;;;;29.16;41.00;100502.89;105088;1303;61150;-82
2022/07/06 11:11:12;;;;;;;;;;;;;;;29.16;41.10;100501.80;105074;1301;74748;-82
2022/07/06 11:13:42;;;;;;;;;;;;;;;29.15;41.04;100501.29;105216;1303;61157;-83
2022/07/06 11:16:07;;;;;;;;;;;;;;;29.15;41.12;100500.02;105133;1303;62544;-81
2022/07/06 11:18:56;;;;;;;;;;;;;;;29.15;41.09;100499.33;105214;1302;61290;-81
2022/07/06 11:21:22;;;;;;;;;;;;;;;29.15;41.14;100502.23;105135;1303;75903;-83
2022/07/06 11:23:49;;;;;;;;;;;;;;;29.15;41.25;100504.95;105001;1303;61214;-83
2022/07/06 11:26:15;;;;;;;;;;;;;;;29.15;41.24;100505.53;104903;1303;61159;-82
2022/07/06 11:28:40;;;;;;;;;;;;;;;29.15;41.11;100503.66;104900;1302;61365;-82
2022/07/06 11:31:06;;;;;;;;;;;;;;;29.15;41.24;100504.00;104998;1302;61380;-82
2022/07/06 11:33:31;;;;;;;;;;;;;;;29.15;41.43;100500.09;104958;1303;61275;-81
2022/07/06 11:36:30;;;;;;;;;;;;;;;29.15;41.42;100493.20;104981;1302;61269;-82
2022/07/06 11:38:55;;;;;;;;;;;;;;;29.14;41.38;100489.88;104390;1308;72988;-82
2022/07/06 11:41:21;;;;;;;;;;;;;;;29.14;41.57;100491.48;104398;1308;61993;-81
2022/07/06 11:43:46;;;;;;;;;;;;;;;29.14;41.56;100492.40;104379;1307;61470;-82
2022/07/06 11:46:19;;;;;;;;;;;;;;;29.14;41.77;100486.38;104432;1308;61213;-81
2022/07/06 11:48:46;;;;;;;;;;;;;;;29.14;41.65;100485.62;104372;1309;73408;-82
2022/07/06 11:51:11;;;;;;;;;;;;;;;29.15;41.56;100485.72;104407;1307;61400;-81
2022/07/06 11:53:37;;;;;;;;;;;;;;;29.16;41.65;100490.52;104457;1308;62023;-81
2022/07/06 11:56:02;;;;;;;;;;;;;;;29.17;41.82;100484.85;104622;1308;61417;-81
2022/07/06 11:58:28;;;;;;;;;;;;;;;29.16;41.81;100480.91;104601;1308;61262;-81
2022/07/06 12:01:23;;;;;;;;;;;;;;;29.16;41.76;100477.48;104441;1308;61302;-81
2022/07/06 12:03:48;;;;;;;;;;;;;;;29.15;41.69;100475.03;104175;1312;75749;-81
2022/07/06 12:06:21;;;;;;;;;;;;;;;29.15;42.01;100476.90;104267;1314;61423;-81
2022/07/06 12:08:53;;;;;;;;;;;;;;;29.14;41.87;100475.38;104240;1314;61112;-81
2022/07/06 12:11:20;;;;;;;;;;;;;;;29.13;42.06;100478.53;104291;1315;72821;-81
2022/07/06 12:13:45;;;;;;;;;;;;;;;29.12;41.99;100482.64;104069;1314;61487;-81
2022/07/06 12:16:11;;;;;;;;;;;;;;;29.11;41.82;100485.59;104416;1307;61294;-81
2022/07/06 12:18:38;;;;;;;;;;;;;;;29.11;42.02;100482.40;104598;1308;61320;-81
2022/07/06 12:21:04;;;;;;;;;;;;;;;29.09;41.87;100487.44;104631;1309;61277;-81
2022/07/06 12:23:38;;;;;;;;;;;;;;;29.09;41.88;100490.16;104537;1307;61284;-81
2022/07/06 12:26:03;;;;;;;;;;;;;;;29.09;41.77;100482.60;104381;1307;61278;-81
2022/07/06 12:28:28;;;;;;;;;;;;;;;29.09;41.80;100482.98;104373;1308;61396;-81